createdAt,value
2018-05-13T00:01:04.713Z,84.40
2018-05-13T00:03:32.777Z,82.30
2018-05-13T00:06:01.265Z,82.40
2018-05-13T00:08:29.312Z,82.80
2018-05-13T00:10:57.408Z,80.80
2018-05-13T00:13:26.249Z,80.40
2018-05-13T00:15:54.317Z,82.80
2018-05-13T00:18:22.389Z,82.30
2018-05-13T00:20:50.461Z,82.60
2018-05-13T00:23:18.565Z,83.20
2018-05-13T00:25:46.641Z,83.50
2018-05-13T00:28:15.943Z,84.30
2018-05-13T00:30:44.010Z,83.80
2018-05-13T00:33:12.057Z,82.80
2018-05-13T00:35:40.153Z,82.70
2018-05-13T00:38:08.200Z,84.50
2018-05-13T00:40:36.476Z,85.80
2018-05-13T00:43:04.659Z,86.80
2018-05-13T00:45:32.643Z,87.80
2018-05-13T00:48:00.733Z,88.60
2018-05-13T00:50:29.198Z,89.50
2018-05-13T00:52:57.261Z,90.20
2018-05-13T00:55:25.333Z,90.20
2018-05-13T00:57:53.737Z,90.20
2018-05-13T01:00:21.783Z,90.10
2018-05-13T01:02:49.943Z,90.50
2018-05-13T01:05:18.446Z,90.10
2018-05-13T01:07:46.488Z,90.40
2018-05-13T01:10:14.573Z,90.80
2018-05-13T01:12:43.144Z,90.60
2018-05-13T01:15:11.229Z,90.60
2018-05-13T01:17:39.317Z,91.00
2018-05-13T01:20:07.410Z,90.90
2018-05-13T01:22:36.235Z,91.40
2018-05-13T01:25:04.329Z,91.40
2018-05-13T01:27:32.714Z,91.10
2018-05-13T01:30:00.964Z,91.20
2018-05-13T01:32:29.057Z,91.20
2018-05-13T01:34:57.473Z,91.20
2018-05-13T01:37:26.329Z,91.40
2018-05-13T01:39:54.397Z,91.10
2018-05-13T01:42:22.653Z,91.20
2018-05-13T01:44:50.721Z,91.40
2018-05-13T01:47:18.797Z,91.40
2018-05-13T01:49:46.869Z,91.40
2018-05-13T01:52:14.948Z,91.30
2018-05-13T01:54:43.237Z,91.30
2018-05-13T01:57:11.332Z,91.60
2018-05-13T01:59:40.205Z,91.70
2018-05-13T02:02:08.301Z,91.70
2018-05-13T02:04:37.960Z,91.70
2018-05-13T02:07:06.082Z,91.70
2018-05-13T02:09:34.153Z,91.70
2018-05-13T02:12:02.500Z,91.80
2018-05-13T02:14:30.601Z,91.80
2018-05-13T02:16:58.649Z,91.40
2018-05-13T02:19:26.716Z,91.70
2018-05-13T02:21:54.773Z,91.80
2018-05-13T02:24:22.857Z,91.60
2018-05-13T02:26:51.149Z,91.20
2018-05-13T02:29:19.328Z,90.90
2018-05-13T02:31:47.414Z,90.50
2018-05-13T02:34:15.533Z,90.40
2018-05-13T02:36:43.605Z,89.90
2018-05-13T02:39:11.668Z,90.00
2018-05-13T02:41:40.065Z,89.40
2018-05-13T02:44:08.137Z,89.00
2018-05-13T02:46:36.217Z,88.90
2018-05-13T02:49:04.317Z,88.70
2018-05-13T02:51:32.397Z,88.70
2018-05-13T02:54:01.357Z,88.80
2018-05-13T02:56:29.730Z,88.80
2018-05-13T02:58:57.822Z,88.20
2018-05-13T03:01:25.914Z,88.40
2018-05-13T03:03:55.285Z,89.10
2018-05-13T03:06:23.461Z,89.00
2018-05-13T03:08:51.548Z,88.80
2018-05-13T03:11:20.131Z,88.50
2018-05-13T03:13:48.729Z,88.20
2018-05-13T03:16:16.854Z,87.90
2018-05-13T03:18:44.940Z,88.10
2018-05-13T03:21:13.108Z,88.50
2018-05-13T03:23:41.220Z,89.60
2018-05-13T03:26:10.113Z,88.00
2018-05-13T03:28:38.967Z,88.80
2018-05-13T03:31:07.040Z,88.80
2018-05-13T03:33:35.417Z,90.30
2018-05-13T03:36:05.009Z,90.70
2018-05-13T03:38:33.130Z,90.70
2018-05-13T03:41:01.218Z,90.80
2018-05-13T03:43:30.290Z,91.00
2018-05-13T03:45:59.869Z,91.20
2018-05-13T03:48:27.957Z,91.10
2018-05-13T03:50:56.011Z,91.10
2018-05-13T03:53:24.072Z,91.20
2018-05-13T03:55:53.613Z,91.20
2018-05-13T03:58:21.705Z,91.20
2018-05-13T04:00:50.793Z,91.20
2018-05-13T04:03:19.928Z,91.20
2018-05-13T04:05:47.993Z,91.20
2018-05-13T04:08:16.993Z,91.30
2018-05-13T04:10:45.085Z,91.30
2018-05-13T04:13:13.165Z,91.20
2018-05-13T04:15:41.257Z,91.30
2018-05-13T04:18:09.505Z,91.20
2018-05-13T04:20:37.597Z,90.90
2018-05-13T04:23:05.677Z,91.20
2018-05-13T04:25:33.748Z,91.10
2018-05-13T04:28:02.626Z,91.00
2018-05-13T04:30:30.681Z,91.00
2018-05-13T04:32:59.205Z,91.00
2018-05-13T04:35:28.152Z,90.70
2018-05-13T04:37:56.257Z,90.70
2018-05-13T04:40:25.428Z,90.60
2018-05-13T04:42:53.495Z,90.60
2018-05-13T04:45:21.572Z,90.90
2018-05-13T04:47:49.661Z,90.50
2018-05-13T04:50:17.733Z,90.60
2018-05-13T04:52:45.813Z,90.40
2018-05-13T04:55:13.936Z,90.20
2018-05-13T04:57:42.065Z,89.80
2018-05-13T05:00:10.923Z,89.30
2018-05-13T05:02:39.292Z,89.20
2018-05-13T05:05:07.352Z,89.40
2018-05-13T05:07:35.440Z,89.40
2018-05-13T05:10:03.729Z,89.30
2018-05-13T05:12:31.786Z,89.40
2018-05-13T05:14:59.873Z,88.90
2018-05-13T05:17:28.254Z,87.60
2018-05-13T05:19:56.337Z,88.30
2018-05-13T05:22:24.453Z,88.50
2018-05-13T05:24:52.783Z,87.30
2018-05-13T05:27:20.855Z,88.80
2018-05-13T05:29:48.926Z,89.00
2018-05-13T05:32:17.818Z,89.50
2018-05-13T05:34:45.886Z,89.40
2018-05-13T05:37:13.962Z,87.70
2018-05-13T05:39:42.049Z,88.10
2018-05-13T05:42:10.894Z,88.40
2018-05-13T05:44:39.057Z,88.40
2018-05-13T05:47:07.172Z,86.70
2018-05-13T05:49:36.011Z,88.80
2018-05-13T05:52:04.101Z,87.90
2018-05-13T05:54:32.372Z,87.40
2018-05-13T05:57:00.467Z,86.60
2018-05-13T05:59:28.903Z,87.00
2018-05-13T06:01:57.617Z,87.50
2018-05-13T06:04:25.708Z,87.00
2018-05-13T06:06:53.782Z,86.90
2018-05-13T06:09:22.154Z,86.70
2018-05-13T06:11:50.208Z,86.80
2018-05-13T06:14:18.322Z,86.70
2018-05-13T06:16:47.394Z,87.10
2018-05-13T06:19:15.445Z,87.00
2018-05-13T06:21:43.621Z,87.40
2018-05-13T06:24:11.721Z,88.00
2018-05-13T06:26:39.813Z,89.00
2018-05-13T06:29:07.893Z,89.20
2018-05-13T06:31:36.013Z,89.10
2018-05-13T06:34:04.265Z,90.10
2018-05-13T06:36:32.341Z,90.60
2018-05-13T06:39:00.929Z,90.60
2018-05-13T06:41:29.041Z,90.60
2018-05-13T06:43:57.113Z,90.70
2018-05-13T06:46:25.288Z,91.00
2018-05-13T06:48:53.333Z,90.90
2018-05-13T06:51:21.463Z,91.20
2018-05-13T06:53:49.765Z,91.50
2018-05-13T06:56:17.848Z,91.80
2018-05-13T06:58:45.945Z,92.30
2018-05-13T07:01:14.317Z,92.70
2018-05-13T07:03:42.368Z,92.90
2018-05-13T07:06:10.428Z,93.00
2018-05-13T07:08:38.801Z,93.10
2018-05-13T07:11:06.967Z,93.30
2018-05-13T07:13:35.065Z,93.10
2018-05-13T07:16:03.160Z,93.20
2018-05-13T07:18:31.244Z,93.50
2018-05-13T07:21:00.126Z,93.80
2018-05-13T07:23:28.493Z,93.70
2018-05-13T07:25:56.548Z,93.80
2018-05-13T07:28:24.651Z,93.50
2018-05-13T07:30:52.733Z,93.40
2018-05-13T07:33:21.563Z,94.10
2018-05-13T07:35:50.098Z,93.80
2018-05-13T07:38:18.999Z,93.90
2018-05-13T07:40:47.845Z,94.30
2018-05-13T07:43:15.910Z,94.00
2018-05-13T07:45:44.192Z,94.20
2018-05-13T07:48:12.282Z,94.20
2018-05-13T07:50:40.353Z,94.30
2018-05-13T07:53:08.465Z,93.90
2018-05-13T07:55:36.567Z,93.90
2018-05-13T07:58:05.561Z,94.10
2018-05-13T08:00:33.649Z,94.10
2018-05-13T08:03:01.714Z,94.00
2018-05-13T08:05:30.084Z,93.80
2018-05-13T08:07:58.210Z,93.90
2018-05-13T08:10:27.060Z,93.90
2018-05-13T08:12:55.171Z,93.90
2018-05-13T08:15:24.028Z,93.90
2018-05-13T08:17:52.090Z,93.90
2018-05-13T08:20:20.658Z,93.90
2018-05-13T08:22:50.262Z,93.90
2018-05-13T08:25:19.192Z,93.90
2018-05-13T08:27:47.289Z,93.90
2018-05-13T08:30:16.122Z,93.90
2018-05-13T08:32:44.195Z,93.90
2018-05-13T08:35:12.665Z,94.00
2018-05-13T08:37:40.757Z,94.00
2018-05-13T08:40:08.848Z,94.00
2018-05-13T08:42:37.848Z,94.00
2018-05-13T08:45:05.900Z,94.00
2018-05-13T08:47:33.965Z,93.90
2018-05-13T08:50:02.429Z,94.10
2018-05-13T08:52:31.287Z,94.10
2018-05-13T08:54:59.385Z,94.00
2018-05-13T08:57:27.816Z,94.00
2018-05-13T08:59:55.877Z,94.00
2018-05-13T09:02:24.315Z,94.80
2018-05-13T09:04:52.818Z,94.50
2018-05-13T09:07:21.509Z,94.60
2018-05-13T09:09:49.582Z,94.30
2018-05-13T09:12:17.705Z,93.90
2018-05-13T09:14:47.276Z,93.70
2018-05-13T09:17:15.406Z,93.70
2018-05-13T09:19:43.489Z,93.70
2018-05-13T09:22:11.561Z,93.40
2018-05-13T09:24:39.653Z,93.30
2018-05-13T09:27:08.257Z,93.00
2018-05-13T09:29:36.389Z,93.10
2018-05-13T09:32:05.308Z,92.90
2018-05-13T09:34:33.393Z,92.60
2018-05-13T09:37:01.473Z,92.80
2018-05-13T09:39:30.416Z,92.80
2018-05-13T09:41:59.192Z,93.20
2018-05-13T09:44:27.801Z,93.20
2018-05-13T09:46:56.046Z,92.70
2018-05-13T09:49:24.153Z,93.20
2018-05-13T09:51:52.237Z,93.20
2018-05-13T09:54:20.829Z,93.00
2018-05-13T09:56:49.049Z,93.40
2018-05-13T09:59:17.129Z,93.20
2018-05-13T10:01:45.560Z,92.80
2018-05-13T10:04:14.431Z,92.70
2018-05-13T10:06:42.517Z,92.60
2018-05-13T10:09:10.587Z,93.20
2018-05-13T10:11:38.629Z,92.80
2018-05-13T10:14:06.717Z,93.10
2018-05-13T10:16:35.775Z,92.50
2018-05-13T10:19:04.618Z,93.00
2018-05-13T10:21:33.478Z,92.30
2018-05-13T10:24:01.891Z,92.30
2018-05-13T10:26:30.755Z,91.50
2018-05-13T10:28:58.840Z,91.50
2018-05-13T10:31:27.213Z,91.80
2018-05-13T10:33:55.410Z,92.10
2018-05-13T10:36:24.266Z,92.70
2018-05-13T10:38:53.665Z,92.60
2018-05-13T10:41:21.779Z,92.50
2018-05-13T10:43:50.601Z,92.50
2018-05-13T10:46:19.057Z,92.50
2018-05-13T10:48:47.890Z,92.60
2018-05-13T10:51:15.956Z,92.60
2018-05-13T10:53:44.337Z,93.30
2018-05-13T10:56:12.405Z,93.30
2018-05-13T10:58:40.518Z,93.20
2018-05-13T11:01:08.882Z,91.80
2018-05-13T11:03:36.958Z,92.60
2018-05-13T11:06:05.036Z,91.40
2018-05-13T11:08:34.236Z,91.40
2018-05-13T11:11:02.309Z,91.40
2018-05-13T11:13:31.813Z,91.00
2018-05-13T11:16:00.689Z,90.90
2018-05-13T11:18:28.744Z,91.10
2018-05-13T11:20:58.341Z,92.00
2018-05-13T11:23:26.937Z,92.00
2018-05-13T11:25:55.043Z,91.90
2018-05-13T11:28:23.896Z,91.80
2018-05-13T11:30:52.280Z,91.80
2018-05-13T11:33:20.336Z,92.30
2018-05-13T11:35:48.757Z,91.60
2018-05-13T11:38:16.891Z,92.10
2018-05-13T11:40:45.001Z,92.30
2018-05-13T11:43:13.892Z,92.00
2018-05-13T11:45:43.690Z,92.20
2018-05-13T11:48:11.773Z,92.20
2018-05-13T11:50:39.836Z,92.40
2018-05-13T11:53:07.901Z,92.80
2018-05-13T11:55:35.991Z,92.00
2018-05-13T11:58:04.865Z,92.50
2018-05-13T12:00:33.320Z,92.50
2018-05-13T12:03:01.421Z,92.80
2018-05-13T12:05:29.476Z,92.70
2018-05-13T12:07:57.840Z,92.40
2018-05-13T12:10:25.917Z,92.30
2018-05-13T12:12:54.035Z,92.50
2018-05-13T12:15:22.901Z,93.00
2018-05-13T12:17:51.972Z,93.00
2018-05-13T12:20:20.046Z,92.80
2018-05-13T12:22:48.236Z,92.40
2018-05-13T12:25:16.487Z,92.70
2018-05-13T12:27:44.569Z,92.40
2018-05-13T12:30:13.205Z,92.60
2018-05-13T12:32:42.086Z,92.50
2018-05-13T12:35:10.978Z,92.30
2018-05-13T12:37:39.932Z,92.30
2018-05-13T12:40:08.034Z,92.30
2018-05-13T12:42:36.092Z,92.40
2018-05-13T12:45:04.165Z,93.00
2018-05-13T12:47:32.253Z,92.90
2018-05-13T12:50:01.137Z,92.80
2018-05-13T12:52:29.517Z,92.80
2018-05-13T12:54:57.585Z,92.90
2018-05-13T12:57:25.649Z,92.60
2018-05-13T12:59:54.013Z,92.40
2018-05-13T13:02:22.159Z,92.40
2018-05-13T13:04:50.184Z,91.80
2018-05-13T13:07:18.269Z,91.60
2018-05-13T13:09:47.121Z,92.80
2018-05-13T13:12:15.192Z,92.50
2018-05-13T13:14:43.797Z,91.80
2018-05-13T13:17:11.844Z,91.60
2018-05-13T13:19:39.910Z,92.30
2018-05-13T13:22:08.064Z,92.60
2018-05-13T13:24:37.073Z,92.50
2018-05-13T13:27:05.998Z,92.60
2018-05-13T13:29:34.833Z,93.10
2018-05-13T13:32:02.935Z,92.80
2018-05-13T13:34:31.306Z,92.80
2018-05-13T13:36:59.382Z,92.60
2018-05-13T13:39:27.481Z,92.50
2018-05-13T13:41:55.856Z,92.10
2018-05-13T13:44:23.932Z,91.90
2018-05-13T13:46:52.809Z,91.70
2018-05-13T13:49:20.880Z,91.70
2018-05-13T13:51:49.123Z,92.00
2018-05-13T13:54:17.225Z,92.10
2018-05-13T13:56:45.604Z,92.30
2018-05-13T13:59:13.672Z,92.10
2018-05-13T14:01:41.742Z,91.40
2018-05-13T14:04:10.097Z,91.60
2018-05-13T14:06:38.213Z,91.20
2018-05-13T14:09:07.088Z,91.40
2018-05-13T14:11:35.577Z,91.40
2018-05-13T14:14:03.644Z,91.20
2018-05-13T14:16:31.880Z,90.80
2018-05-13T14:19:00.270Z,91.40
2018-05-13T14:21:28.366Z,90.50
2018-05-13T14:23:56.532Z,90.80
2018-05-13T14:26:24.518Z,90.10
2018-05-13T14:28:52.692Z,90.60
2018-05-13T14:31:21.585Z,90.90
2018-05-13T14:33:49.661Z,90.00
2018-05-13T14:36:17.776Z,90.50
2018-05-13T14:38:45.852Z,90.60
2018-05-13T14:41:14.093Z,90.90
2018-05-13T14:43:42.119Z,91.00
2018-05-13T14:46:10.225Z,91.50
2018-05-13T14:48:39.056Z,91.20
2018-05-13T14:51:07.144Z,91.20
2018-05-13T14:53:35.973Z,91.40
2018-05-13T14:56:04.041Z,90.70
2018-05-13T14:58:32.140Z,90.90
2018-05-13T15:01:00.236Z,91.20
2018-05-13T15:03:28.329Z,91.30
2018-05-13T15:05:56.389Z,91.50
2018-05-13T15:08:24.764Z,91.40
2018-05-13T15:10:52.891Z,91.70
2018-05-13T15:13:21.776Z,91.40
2018-05-13T15:15:51.030Z,91.20
2018-05-13T15:18:19.101Z,91.10
2018-05-13T15:20:47.215Z,91.20
2018-05-13T15:23:16.064Z,91.50
2018-05-13T15:25:44.141Z,91.70
2018-05-13T15:28:12.204Z,91.50
2018-05-13T15:30:40.318Z,91.90
2018-05-13T15:33:08.382Z,91.70
2018-05-13T15:35:36.455Z,91.40
2018-05-13T15:38:05.236Z,91.50
2018-05-13T15:40:33.295Z,91.30
2018-05-13T15:43:01.715Z,91.20
2018-05-13T15:45:30.686Z,91.50
2018-05-13T15:47:58.733Z,91.50
2018-05-13T15:50:26.792Z,91.20
2018-05-13T15:52:54.904Z,91.90
2018-05-13T15:55:23.545Z,91.60
2018-05-13T15:57:51.634Z,91.90
2018-05-13T16:00:20.001Z,91.90
2018-05-13T16:02:48.119Z,91.60
2018-05-13T16:05:16.977Z,91.90
2018-05-13T16:07:45.440Z,91.90
2018-05-13T16:10:13.513Z,91.70
2018-05-13T16:12:41.631Z,91.90
2018-05-13T16:15:10.901Z,91.80
2018-05-13T16:17:39.788Z,91.80
2018-05-13T16:20:07.890Z,91.50
2018-05-13T16:22:36.783Z,92.10
2018-05-13T16:25:05.157Z,92.10
2018-05-13T16:27:33.235Z,91.90
2018-05-13T16:30:02.228Z,91.00
2018-05-13T16:32:31.631Z,91.80
2018-05-13T16:35:00.473Z,91.90
2018-05-13T16:37:28.581Z,91.90
2018-05-13T16:39:56.841Z,91.60
2018-05-13T16:42:24.941Z,91.80
2018-05-13T16:44:53.000Z,91.90
2018-05-13T16:47:21.105Z,92.00
2018-05-13T16:49:49.571Z,92.20
2018-05-13T16:52:18.467Z,91.90
2018-05-13T16:54:46.538Z,91.80
2018-05-13T16:57:16.244Z,92.10
2018-05-13T16:59:45.140Z,92.30
2018-05-13T17:02:14.026Z,92.40
2018-05-13T17:04:42.904Z,92.40
2018-05-13T17:07:10.957Z,92.40
2018-05-13T17:09:39.101Z,92.40
2018-05-13T17:12:07.425Z,92.50
2018-05-13T17:14:36.280Z,92.50
2018-05-13T17:17:04.393Z,92.70
2018-05-13T17:19:32.456Z,92.60
2018-05-13T17:22:01.572Z,92.60
2018-05-13T17:24:30.401Z,92.50
2018-05-13T17:26:58.534Z,92.50
2018-05-13T17:29:27.440Z,92.50
2018-05-13T17:31:56.301Z,92.20
2018-05-13T17:34:25.382Z,92.20
2018-05-13T17:36:53.473Z,92.20
2018-05-13T17:39:22.403Z,92.10
2018-05-13T17:41:50.600Z,92.10
2018-05-13T17:44:18.754Z,92.20
2018-05-13T17:46:47.081Z,92.30
2018-05-13T17:49:15.153Z,92.30
2018-05-13T17:51:44.013Z,92.10
2018-05-13T17:54:12.113Z,92.10
2018-05-13T17:56:40.214Z,92.00
2018-05-13T17:59:08.340Z,91.80
2018-05-13T18:01:36.463Z,91.80
2018-05-13T18:04:04.809Z,91.90
2018-05-13T18:06:32.874Z,91.50
2018-05-13T18:09:00.949Z,91.50
2018-05-13T18:11:29.510Z,91.30
2018-05-13T18:13:57.607Z,91.50
2018-05-13T18:16:25.669Z,91.60
2018-05-13T18:18:53.792Z,92.10
2018-05-13T18:21:21.873Z,91.90
2018-05-13T18:23:49.945Z,91.80
2018-05-13T18:26:18.053Z,91.90
2018-05-13T18:28:46.129Z,91.40
2018-05-13T18:31:14.221Z,91.80
2018-05-13T18:33:43.169Z,91.50
2018-05-13T18:36:11.261Z,91.50
2018-05-13T18:38:39.319Z,91.40
2018-05-13T18:41:07.433Z,91.40
2018-05-13T18:43:36.272Z,91.40
2018-05-13T18:46:04.377Z,91.40
2018-05-13T18:48:34.203Z,91.70
2018-05-13T18:51:03.061Z,91.70
2018-05-13T18:53:31.117Z,91.70
2018-05-13T18:55:59.197Z,91.90
2018-05-13T18:58:27.298Z,91.70
2018-05-13T19:00:56.344Z,91.60
2018-05-13T19:03:24.425Z,91.60
2018-05-13T19:05:52.533Z,91.50
2018-05-13T19:08:21.401Z,91.50
2018-05-13T19:10:49.696Z,91.50
2018-05-13T19:13:17.744Z,91.60
2018-05-13T19:15:45.809Z,91.50
2018-05-13T19:18:14.184Z,91.30
2018-05-13T19:20:42.279Z,91.70
2018-05-13T19:23:10.362Z,92.00
2018-05-13T19:25:38.626Z,92.00
2018-05-13T19:28:06.681Z,92.10
2018-05-13T19:30:34.753Z,92.10
2018-05-13T19:33:03.228Z,92.10
2018-05-13T19:35:31.341Z,92.40
2018-05-13T19:38:00.240Z,92.40
2018-05-13T19:40:29.133Z,92.30
2018-05-13T19:42:58.016Z,92.40
2018-05-13T19:45:26.084Z,92.70
2018-05-13T19:47:54.964Z,92.30
2018-05-13T19:50:23.108Z,92.30
2018-05-13T19:52:51.785Z,92.10
2018-05-13T19:55:19.856Z,92.10
2018-05-13T19:57:47.943Z,92.30
2018-05-13T20:00:17.473Z,92.30
2018-05-13T20:02:45.553Z,92.20
2018-05-13T20:05:13.617Z,92.00
2018-05-13T20:07:41.706Z,92.30
2018-05-13T20:10:10.553Z,92.20
2018-05-13T20:12:38.628Z,92.20
2018-05-13T20:15:07.018Z,91.90
2018-05-13T20:17:35.109Z,92.00
2018-05-13T20:20:03.969Z,92.20
2018-05-13T20:22:32.317Z,92.20
2018-05-13T20:25:00.425Z,92.30
2018-05-13T20:27:28.514Z,92.20
2018-05-13T20:29:58.697Z,92.20
2018-05-13T20:32:26.781Z,92.20
2018-05-13T20:34:54.877Z,92.20
2018-05-13T20:37:22.940Z,92.30
2018-05-13T20:39:51.033Z,92.30
2018-05-13T20:42:19.898Z,92.20
2018-05-13T20:44:47.973Z,92.20
2018-05-13T20:47:16.715Z,92.30
2018-05-13T20:49:44.841Z,92.30
2018-05-13T20:52:12.884Z,92.60
2018-05-13T20:54:40.959Z,92.30
2018-05-13T20:57:09.029Z,92.20
2018-05-13T20:59:37.129Z,92.30
2018-05-13T21:02:05.981Z,92.80
2018-05-13T21:04:34.092Z,92.80
2018-05-13T21:07:02.173Z,92.90
2018-05-13T21:09:30.277Z,93.30
2018-05-13T21:11:58.453Z,93.40
2018-05-13T21:14:26.544Z,93.40
2018-05-13T21:16:54.616Z,93.40
2018-05-13T21:19:22.709Z,93.40
2018-05-13T21:21:50.764Z,93.30
2018-05-13T21:24:18.841Z,93.40
2018-05-13T21:26:46.916Z,93.50
2018-05-13T21:29:15.732Z,93.50
2018-05-13T21:31:45.140Z,93.60
2018-05-13T21:34:14.025Z,93.60
2018-05-13T21:36:42.989Z,93.40
2018-05-13T21:39:11.097Z,93.40
2018-05-13T21:41:39.979Z,93.60
2018-05-13T21:44:08.038Z,93.60
2018-05-13T21:46:36.136Z,93.60
2018-05-13T21:49:04.365Z,93.60
2018-05-13T21:51:33.386Z,93.60
2018-05-13T21:54:01.483Z,93.80
2018-05-13T21:56:30.345Z,93.90
2018-05-13T21:58:58.406Z,93.90
2018-05-13T22:01:27.203Z,93.80
2018-05-13T22:03:55.281Z,93.80
2018-05-13T22:06:23.348Z,93.80
2018-05-13T22:08:52.243Z,94.00
2018-05-13T22:11:21.625Z,93.80
2018-05-13T22:13:49.713Z,93.80
2018-05-13T22:16:18.448Z,93.90
2018-05-13T22:18:46.553Z,94.30
2018-05-13T22:21:14.691Z,94.20
2018-05-13T22:23:43.098Z,94.30
2018-05-13T22:26:11.401Z,94.30
2018-05-13T22:28:39.466Z,94.30
2018-05-13T22:31:07.849Z,94.30
2018-05-13T22:33:35.934Z,94.30
2018-05-13T22:36:04.791Z,94.30
2018-05-13T22:38:33.077Z,94.20
2018-05-13T22:41:01.139Z,94.30
2018-05-13T22:43:29.233Z,94.40
2018-05-13T22:45:57.321Z,94.50
2018-05-13T22:48:26.173Z,94.50
2018-05-13T22:50:54.473Z,94.50
2018-05-13T22:53:23.669Z,94.50
2018-05-13T22:55:51.790Z,94.40
2018-05-13T22:58:19.961Z,94.50
2018-05-13T23:00:48.251Z,94.60
2018-05-13T23:03:16.326Z,94.60
2018-05-13T23:05:44.396Z,94.80
2018-05-13T23:08:12.833Z,94.70
2018-05-13T23:10:41.677Z,95.30
2018-05-13T23:13:09.733Z,94.90
2018-05-13T23:15:38.200Z,94.90
2018-05-13T23:18:06.240Z,95.10
2018-05-13T23:20:34.296Z,95.20
2018-05-13T23:23:03.360Z,95.30
2018-05-13T23:25:31.423Z,95.30
2018-05-13T23:27:59.533Z,95.30
2018-05-13T23:30:27.680Z,95.30
2018-05-13T23:32:55.728Z,95.20
2018-05-13T23:35:23.813Z,95.20
2018-05-13T23:37:52.229Z,95.50
2018-05-13T23:40:20.276Z,95.40
2018-05-13T23:42:48.352Z,95.40
2018-05-13T23:45:16.763Z,95.60
2018-05-13T23:47:45.617Z,95.50
2018-05-13T23:50:13.715Z,95.40
2018-05-13T23:52:41.992Z,95.20
2018-05-13T23:55:10.285Z,95.40
2018-05-13T23:57:39.134Z,95.60
